sensor_id;sensor_type;location;lat;lon;timestamp;pressure;altitude;pressure_sealevel;temperature;humidity
57442;BME280;43284;47.042;15.498;2022-08-19T00:01:51;96598.34;;;17.52;82.85
57442;BME280;43284;47.042;15.498;2022-08-19T00:04:21;96595.81;;;17.50;82.72
57442;BME280;43284;47.042;15.498;2022-08-19T00:06:51;96598.03;;;17.45;83.17
57442;BME280;43284;47.042;15.498;2022-08-19T00:09:21;96605.25;;;17.43;83.46
57442;BME280;43284;47.042;15.498;2022-08-19T00:11:49;96600.34;;;17.38;83.25
57442;BME280;43284;47.042;15.498;2022-08-19T00:14:18;96607.69;;;17.35;83.67
57442;BME280;43284;47.042;15.498;2022-08-19T00:16:48;96613.47;;;17.28;83.18
57442;BME280;43284;47.042;15.498;2022-08-19T00:19:15;96624.06;;;17.28;83.88
57442;BME280;43284;47.042;15.498;2022-08-19T00:21:43;96631.16;;;17.28;83.71
57442;BME280;43284;47.042;15.498;2022-08-19T00:24:13;96627.78;;;17.26;84.09
57442;BME280;43284;47.042;15.498;2022-08-19T00:26:43;96623.63;;;17.23;84.46
57442;BME280;43284;47.042;15.498;2022-08-19T00:29:13;96615.22;;;17.18;84.03
57442;BME280;43284;47.042;15.498;2022-08-19T00:31:41;96608.97;;;17.19;84.17
57442;BME280;43284;47.042;15.498;2022-08-19T00:34:10;96625.78;;;17.18;83.43
57442;BME280;43284;47.042;15.498;2022-08-19T00:36:38;96626.88;;;17.16;83.61
57442;BME280;43284;47.042;15.498;2022-08-19T00:39:06;96621.28;;;17.09;83.92
57442;BME280;43284;47.042;15.498;2022-08-19T00:41:34;96623.72;;;17.01;84.28
57442;BME280;43284;47.042;15.498;2022-08-19T00:44:11;96623.97;;;16.98;84.25
57442;BME280;43284;47.042;15.498;2022-08-19T00:46:44;96634.81;;;16.95;84.52
57442;BME280;43284;47.042;15.498;2022-08-19T00:49:22;96645.72;;;16.90;84.87
57442;BME280;43284;47.042;15.498;2022-08-19T00:52:08;96647.19;;;16.83;84.98
57442;BME280;43284;47.042;15.498;2022-08-19T00:54:36;96655.38;;;16.80;85.08
57442;BME280;43284;47.042;15.498;2022-08-19T00:57:09;96654.88;;;16.75;85.17
57442;BME280;43284;47.042;15.498;2022-08-19T00:59:40;96643.84;;;16.69;85.29
57442;BME280;43284;47.042;15.498;2022-08-19T01:02:09;96645.31;;;16.62;85.09
57442;BME280;43284;47.042;15.498;2022-08-19T01:04:36;96645.31;;;16.62;85.95
57442;BME280;43284;47.042;15.498;2022-08-19T01:07:04;96650.59;;;16.62;86.34
57442;BME280;43284;47.042;15.498;2022-08-19T01:09:31;96663.69;;;16.64;85.63
57442;BME280;43284;47.042;15.498;2022-08-19T01:11:59;96665.00;;;16.58;85.49
57442;BME280;43284;47.042;15.498;2022-08-19T01:14:27;96684.44;;;16.57;86.32
57442;BME280;43284;47.042;15.498;2022-08-19T01:16:55;96690.78;;;16.55;85.53
57442;BME280;43284;47.042;15.498;2022-08-19T01:19:33;96692.84;;;16.51;86.49
57442;BME280;43284;47.042;15.498;2022-08-19T01:24:52;96676.53;;;16.46;86.86
57442;BME280;43284;47.042;15.498;2022-08-19T01:27:19;96677.50;;;16.45;87.06
57442;BME280;43284;47.042;15.498;2022-08-19T01:29:47;96664.31;;;16.45;87.63
57442;BME280;43284;47.042;15.498;2022-08-19T01:32:16;96666.97;;;16.45;87.13
57442;BME280;43284;47.042;15.498;2022-08-19T01:34:43;96664.53;;;16.64;86.45
57442;BME280;43284;47.042;15.498;2022-08-19T01:37:14;96654.78;;;16.65;85.92
57442;BME280;43284;47.042;15.498;2022-08-19T01:39:42;96648.31;;;16.69;85.59
57442;BME280;43284;47.042;15.498;2022-08-19T01:42:10;96641.66;;;16.75;85.10
57442;BME280;43284;47.042;15.498;2022-08-19T01:44:40;96628.84;;;16.81;85.05
57442;BME280;43284;47.042;15.498;2022-08-19T01:47:11;96604.97;;;16.83;84.95
57442;BME280;43284;47.042;15.498;2022-08-19T01:49:38;96590.66;;;16.85;84.82
57442;BME280;43284;47.042;15.498;2022-08-19T01:52:06;96579.72;;;16.90;84.67
57442;BME280;43284;47.042;15.498;2022-08-19T01:54:33;96574.19;;;16.93;85.35
57442;BME280;43284;47.042;15.498;2022-08-19T01:57:08;96567.00;;;16.95;85.24
57442;BME280;43284;47.042;15.498;2022-08-19T01:59:38;96548.50;;;16.95;85.98
57442;BME280;43284;47.042;15.498;2022-08-19T02:02:07;96550.31;;;16.95;85.93
57442;BME280;43284;47.042;15.498;2022-08-19T02:04:36;96572.38;;;16.94;85.63
57442;BME280;43284;47.042;15.498;2022-08-19T02:07:04;96568.81;;;16.95;85.38
57442;BME280;43284;47.042;15.498;2022-08-19T02:09:32;96578.50;;;16.94;85.50
57442;BME280;43284;47.042;15.498;2022-08-19T02:11:59;96578.66;;;16.93;85.22
57442;BME280;43284;47.042;15.498;2022-08-19T02:14:26;96576.41;;;16.88;84.85
57442;BME280;43284;47.042;15.498;2022-08-19T02:16:53;96590.09;;;16.82;85.02
57442;BME280;43284;47.042;15.498;2022-08-19T02:19:21;96576.94;;;16.71;85.55
57442;BME280;43284;47.042;15.498;2022-08-19T02:21:49;96576.44;;;16.65;85.95
57442;BME280;43284;47.042;15.498;2022-08-19T02:24:16;96570.84;;;16.59;85.56
57442;BME280;43284;47.042;15.498;2022-08-19T02:26:43;96564.72;;;16.58;85.84
57442;BME280;43284;47.042;15.498;2022-08-19T02:29:11;96564.63;;;16.60;86.38
57442;BME280;43284;47.042;15.498;2022-08-19T02:31:38;96556.56;;;16.61;86.02
57442;BME280;43284;47.042;15.498;2022-08-19T02:34:06;96548.53;;;16.63;86.01
57442;BME280;43284;47.042;15.498;2022-08-19T02:36:33;96557.03;;;16.66;85.73
57442;BME280;43284;47.042;15.498;2022-08-19T02:39:01;96571.44;;;16.62;86.65
57442;BME280;43284;47.042;15.498;2022-08-19T02:41:30;96567.25;;;16.60;86.97
57442;BME280;43284;47.042;15.498;2022-08-19T02:43:59;96559.19;;;16.61;86.18
57442;BME280;43284;47.042;15.498;2022-08-19T02:46:29;96567.00;;;16.63;86.34
57442;BME280;43284;47.042;15.498;2022-08-19T02:48:58;96565.66;;;16.68;85.14
57442;BME280;43284;47.042;15.498;2022-08-19T02:51:39;96567.50;;;16.57;86.88
57442;BME280;43284;47.042;15.498;2022-08-19T02:54:08;96575.66;;;16.54;87.92
57442;BME280;43284;47.042;15.498;2022-08-19T02:56:37;96580.94;;;16.54;87.64
57442;BME280;43284;47.042;15.498;2022-08-19T02:59:06;96573.97;;;16.53;86.82
57442;BME280;43284;47.042;15.498;2022-08-19T03:01:39;96583.81;;;16.51;87.41
57442;BME280;43284;47.042;15.498;2022-08-19T03:04:08;96583.09;;;16.48;88.04
57442;BME280;43284;47.042;15.498;2022-08-19T03:06:42;96580.13;;;16.42;87.87
57442;BME280;43284;47.042;15.498;2022-08-19T03:09:12;96568.50;;;16.44;87.67
57442;BME280;43284;47.042;15.498;2022-08-19T03:11:40;96582.53;;;16.45;87.81
57442;BME280;43284;47.042;15.498;2022-08-19T03:14:08;96579.06;;;16.44;88.55
57442;BME280;43284;47.042;15.498;2022-08-19T03:16:47;96572.38;;;16.40;87.69
57442;BME280;43284;47.042;15.498;2022-08-19T03:19:17;96580.50;;;16.37;88.22
57442;BME280;43284;47.042;15.498;2022-08-19T03:21:45;96591.06;;;16.37;88.67
57442;BME280;43284;47.042;15.498;2022-08-19T03:24:13;96587.97;;;16.32;88.36
57442;BME280;43284;47.042;15.498;2022-08-19T03:26:44;96596.72;;;16.33;89.00
57442;BME280;43284;47.042;15.498;2022-08-19T03:29:11;96604.50;;;16.34;88.96
57442;BME280;43284;47.042;15.498;2022-08-19T03:31:40;96581.59;;;16.35;89.13
57442;BME280;43284;47.042;15.498;2022-08-19T03:34:07;96589.03;;;16.41;89.24
57442;BME280;43284;47.042;15.498;2022-08-19T03:36:34;96601.13;;;16.43;89.19
57442;BME280;43284;47.042;15.498;2022-08-19T03:39:02;96602.66;;;16.46;89.49
57442;BME280;43284;47.042;15.498;2022-08-19T03:41:37;96612.13;;;16.48;89.37
57442;BME280;43284;47.042;15.498;2022-08-19T03:44:05;96637.56;;;16.50;88.62
57442;BME280;43284;47.042;15.498;2022-08-19T03:46:33;96658.31;;;16.43;88.89
57442;BME280;43284;47.042;15.498;2022-08-19T03:49:02;96680.38;;;16.42;88.52
57442;BME280;43284;47.042;15.498;2022-08-19T03:51:37;96694.28;;;16.44;89.34
57442;BME280;43284;47.042;15.498;2022-08-19T03:54:08;96716.47;;;16.53;89.43
57442;BME280;43284;47.042;15.498;2022-08-19T03:56:37;96722.22;;;16.58;89.64
57442;BME280;43284;47.042;15.498;2022-08-19T03:59:10;96733.63;;;16.58;89.13
57442;BME280;43284;47.042;15.498;2022-08-19T04:01:37;96746.44;;;16.63;89.54
57442;BME280;43284;47.042;15.498;2022-08-19T04:04:04;96739.97;;;16.67;88.63
57442;BME280;43284;47.042;15.498;2022-08-19T04:06:33;96727.03;;;16.64;88.82
57442;BME280;43284;47.042;15.498;2022-08-19T04:09:04;96724.63;;;16.61;89.01
57442;BME280;43284;47.042;15.498;2022-08-19T04:11:35;96718.50;;;16.60;89.25
57442;BME280;43284;47.042;15.498;2022-08-19T04:14:04;96715.97;;;16.59;89.40
57442;BME280;43284;47.042;15.498;2022-08-19T04:16:31;96714.06;;;16.61;89.21
57442;BME280;43284;47.042;15.498;2022-08-19T04:19:01;96719.09;;;16.64;89.09
57442;BME280;43284;47.042;15.498;2022-08-19T04:21:29;96714.28;;;16.69;88.10
57442;BME280;43284;47.042;15.498;2022-08-19T04:23:57;96695.56;;;16.72;88.36
57442;BME280;43284;47.042;15.498;2022-08-19T04:26:31;96683.22;;;16.73;88.23
57442;BME280;43284;47.042;15.498;2022-08-19T04:29:00;96691.97;;;16.73;88.64
57442;BME280;43284;47.042;15.498;2022-08-19T04:31:30;96705.16;;;16.73;89.43
57442;BME280;43284;47.042;15.498;2022-08-19T04:33:59;96701.53;;;16.74;89.19
57442;BME280;43284;47.042;15.498;2022-08-19T04:36:30;96682.97;;;16.76;89.14
57442;BME280;43284;47.042;15.498;2022-08-19T04:39:02;96675.41;;;16.82;88.52
57442;BME280;43284;47.042;15.498;2022-08-19T04:41:31;96676.84;;;16.86;87.10
57442;BME280;43284;47.042;15.498;2022-08-19T04:44:17;96669.25;;;16.93;87.17
57442;BME280;43284;47.042;15.498;2022-08-19T04:46:45;96663.69;;;16.96;87.37
57442;BME280;43284;47.042;15.498;2022-08-19T04:49:15;96667.78;;;17.00;87.45
57442;BME280;43284;47.042;15.498;2022-08-19T04:51:45;96650.84;;;17.03;87.27
57442;BME280;43284;47.042;15.498;2022-08-19T04:54:15;96642.53;;;17.07;87.76
57442;BME280;43284;47.042;15.498;2022-08-19T04:56:43;96652.13;;;17.08;87.71
57442;BME280;43284;47.042;15.498;2022-08-19T04:59:10;96647.56;;;17.11;87.08
57442;BME280;43284;47.042;15.498;2022-08-19T05:01:38;96654.00;;;17.18;88.47
57442;BME280;43284;47.042;15.498;2022-08-19T05:04:06;96641.25;;;17.23;88.22
57442;BME280;43284;47.042;15.498;2022-08-19T05:06:35;96647.13;;;17.26;87.66
57442;BME280;43284;47.042;15.498;2022-08-19T05:09:04;96659.94;;;17.31;87.46
57442;BME280;43284;47.042;15.498;2022-08-19T05:11:34;96664.81;;;17.36;86.92
57442;BME280;43284;47.042;15.498;2022-08-19T05:14:07;96672.25;;;17.42;87.12
57442;BME280;43284;47.042;15.498;2022-08-19T05:16:34;96680.38;;;17.50;86.95
57442;BME280;43284;47.042;15.498;2022-08-19T05:19:02;96688.31;;;17.50;87.19
57442;BME280;43284;47.042;15.498;2022-08-19T05:21:47;96692.47;;;17.53;87.40
57442;BME280;43284;47.042;15.498;2022-08-19T05:24:32;96689.44;;;17.57;87.43
57442;BME280;43284;47.042;15.498;2022-08-19T05:27:01;96691.00;;;17.60;86.75
57442;BME280;43284;47.042;15.498;2022-08-19T05:29:29;96690.34;;;17.67;87.33
57442;BME280;43284;47.042;15.498;2022-08-19T05:31:58;96689.13;;;17.71;86.62
57442;BME280;43284;47.042;15.498;2022-08-19T05:34:26;96685.25;;;17.76;86.44
57442;BME280;43284;47.042;15.498;2022-08-19T05:36:58;96677.53;;;17.84;86.53
57442;BME280;43284;47.042;15.498;2022-08-19T05:39:29;96678.53;;;17.92;87.06
57442;BME280;43284;47.042;15.498;2022-08-19T05:42:03;96674.53;;;17.98;87.10
57442;BME280;43284;47.042;15.498;2022-08-19T05:44:37;96689.63;;;18.07;87.05
57442;BME280;43284;47.042;15.498;2022-08-19T05:47:06;96688.38;;;18.11;87.36
57442;BME280;43284;47.042;15.498;2022-08-19T05:49:35;96689.50;;;18.19;87.58
57442;BME280;43284;47.042;15.498;2022-08-19T05:52:09;96694.41;;;18.23;87.57
57442;BME280;43284;47.042;15.498;2022-08-19T05:54:41;96696.50;;;18.29;87.14
57442;BME280;43284;47.042;15.498;2022-08-19T05:57:09;96713.97;;;18.42;88.33
57442;BME280;43284;47.042;15.498;2022-08-19T05:59:37;96717.63;;;18.50;88.37
57442;BME280;43284;47.042;15.498;2022-08-19T06:02:05;96713.59;;;18.56;88.55
57442;BME280;43284;47.042;15.498;2022-08-19T06:04:33;96710.56;;;18.61;88.07
57442;BME280;43284;47.042;15.498;2022-08-19T06:07:04;96717.38;;;18.63;87.67
57442;BME280;43284;47.042;15.498;2022-08-19T06:09:32;96720.34;;;18.70;87.16
57442;BME280;43284;47.042;15.498;2022-08-19T06:11:59;96730.25;;;18.78;87.19
57442;BME280;43284;47.042;15.498;2022-08-19T06:14:30;96730.56;;;18.84;87.03
57442;BME280;43284;47.042;15.498;2022-08-19T06:16:58;96722.91;;;18.91;87.16
57442;BME280;43284;47.042;15.498;2022-08-19T06:19:29;96719.81;;;18.96;86.57
57442;BME280;43284;47.042;15.498;2022-08-19T06:21:59;96723.34;;;19.06;87.61
57442;BME280;43284;47.042;15.498;2022-08-19T06:24:29;96713.31;;;19.09;88.48
57442;BME280;43284;47.042;15.498;2022-08-19T06:26:57;96703.94;;;19.15;88.31
57442;BME280;43284;47.042;15.498;2022-08-19T06:29:26;96688.50;;;19.20;88.10
57442;BME280;43284;47.042;15.498;2022-08-19T06:31:56;96670.34;;;19.25;87.36
57442;BME280;43284;47.042;15.498;2022-08-19T06:34:25;96685.69;;;19.31;87.14
57442;BME280;43284;47.042;15.498;2022-08-19T06:36:55;96690.13;;;19.41;86.02
57442;BME280;43284;47.042;15.498;2022-08-19T06:39:27;96676.03;;;19.50;85.97
57442;BME280;43284;47.042;15.498;2022-08-19T06:41:59;96673.50;;;19.58;85.36
57442;BME280;43284;47.042;15.498;2022-08-19T06:44:28;96677.13;;;19.67;84.66
57442;BME280;43284;47.042;15.498;2022-08-19T06:46:56;96690.53;;;19.75;82.20
57442;BME280;43284;47.042;15.498;2022-08-19T06:49:25;96691.06;;;19.88;82.55
57442;BME280;43284;47.042;15.498;2022-08-19T06:51:58;96697.13;;;20.08;81.28
57442;BME280;43284;47.042;15.498;2022-08-19T06:54:26;96694.84;;;20.23;80.83
57442;BME280;43284;47.042;15.498;2022-08-19T06:56:59;96697.63;;;20.31;79.08
57442;BME280;43284;47.042;15.498;2022-08-19T06:59:32;96703.56;;;20.43;80.31
57442;BME280;43284;47.042;15.498;2022-08-19T07:02:03;96709.25;;;20.48;77.90
57442;BME280;43284;47.042;15.498;2022-08-19T07:04:36;96719.16;;;20.56;77.66
57442;BME280;43284;47.042;15.498;2022-08-19T07:07:10;96735.50;;;20.61;77.19
57442;BME280;43284;47.042;15.498;2022-08-19T07:09:42;96748.34;;;20.66;76.63
57442;BME280;43284;47.042;15.498;2022-08-19T07:12:11;96754.34;;;20.68;75.68
57442;BME280;43284;47.042;15.498;2022-08-19T07:14:41;96748.75;;;20.71;75.68
57442;BME280;43284;47.042;15.498;2022-08-19T07:17:11;96752.94;;;20.73;75.65
57442;BME280;43284;47.042;15.498;2022-08-19T07:19:38;96740.47;;;20.74;75.71
57442;BME280;43284;47.042;15.498;2022-08-19T07:22:07;96732.38;;;20.75;76.86
57442;BME280;43284;47.042;15.498;2022-08-19T07:24:35;96739.47;;;20.75;77.46
57442;BME280;43284;47.042;15.498;2022-08-19T07:27:03;96732.38;;;20.75;78.35
57442;BME280;43284;47.042;15.498;2022-08-19T07:29:34;96738.81;;;20.73;78.41
57442;BME280;43284;47.042;15.498;2022-08-19T07:32:02;96749.13;;;20.76;81.17
57442;BME280;43284;47.042;15.498;2022-08-19T07:34:30;96756.56;;;20.72;81.34
57442;BME280;43284;47.042;15.498;2022-08-19T07:37:01;96753.19;;;20.70;81.85
57442;BME280;43284;47.042;15.498;2022-08-19T07:39:34;96742.88;;;20.67;80.95
57442;BME280;43284;47.042;15.498;2022-08-19T07:42:06;96748.66;;;20.63;82.31
57442;BME280;43284;47.042;15.498;2022-08-19T07:44:36;96764.44;;;20.54;84.69
57442;BME280;43284;47.042;15.498;2022-08-19T07:47:04;96801.22;;;20.49;86.10
57442;BME280;43284;47.042;15.498;2022-08-19T07:49:33;96796.63;;;20.42;87.00
57442;BME280;43284;47.042;15.498;2022-08-19T07:52:09;96787.28;;;20.37;87.34
57442;BME280;43284;47.042;15.498;2022-08-19T07:54:39;96770.25;;;20.40;86.50
57442;BME280;43284;47.042;15.498;2022-08-19T07:57:07;96800.84;;;20.34;88.02
57442;BME280;43284;47.042;15.498;2022-08-19T07:59:35;96796.09;;;20.28;88.57
57442;BME280;43284;47.042;15.498;2022-08-19T08:02:03;96802.28;;;20.19;88.54
57442;BME280;43284;47.042;15.498;2022-08-19T08:04:31;96811.25;;;20.08;88.36
57442;BME280;43284;47.042;15.498;2022-08-19T08:07:17;96823.25;;;20.03;89.41
57442;BME280;43284;47.042;15.498;2022-08-19T08:10:05;96811.81;;;20.02;89.64
57442;BME280;43284;47.042;15.498;2022-08-19T08:12:39;96802.63;;;19.96;88.46
57442;BME280;43284;47.042;15.498;2022-08-19T08:15:15;96797.31;;;19.87;88.06
57442;BME280;43284;47.042;15.498;2022-08-19T08:17:43;96787.25;;;19.81;88.44
57442;BME280;43284;47.042;15.498;2022-08-19T08:20:11;96772.59;;;19.76;89.65
57442;BME280;43284;47.042;15.498;2022-08-19T08:22:44;96775.41;;;19.75;91.92
57442;BME280;43284;47.042;15.498;2022-08-19T08:25:29;96751.09;;;19.70;91.08
57442;BME280;43284;47.042;15.498;2022-08-19T08:27:57;96727.81;;;19.73;89.17
57442;BME280;43284;47.042;15.498;2022-08-19T08:30:28;96719.84;;;19.73;88.55
57442;BME280;43284;47.042;15.498;2022-08-19T08:32:56;96717.50;;;19.70;87.64
57442;BME280;43284;47.042;15.498;2022-08-19T08:35:24;96717.34;;;19.72;90.63
57442;BME280;43284;47.042;15.498;2022-08-19T08:37:54;96736.72;;;19.63;91.92
57442;BME280;43284;47.042;15.498;2022-08-19T08:40:29;96762.28;;;19.64;92.91
57442;BME280;43284;47.042;15.498;2022-08-19T08:43:22;96752.09;;;19.59;92.46
57442;BME280;43284;47.042;15.498;2022-08-19T08:45:56;96728.22;;;19.59;92.86
57442;BME280;43284;47.042;15.498;2022-08-19T08:48:44;96739.09;;;19.56;92.84
57442;BME280;43284;47.042;15.498;2022-08-19T08:51:29;96694.59;;;19.60;92.42
57442;BME280;43284;47.042;15.498;2022-08-19T08:54:07;96703.94;;;19.64;93.65
57442;BME280;43284;47.042;15.498;2022-08-19T08:56:39;96735.91;;;19.72;94.41
57442;BME280;43284;47.042;15.498;2022-08-19T09:01:37;96723.47;;;19.92;96.19
57442;BME280;43284;47.042;15.498;2022-08-19T09:04:05;96728.84;;;20.00;96.55
57442;BME280;43284;47.042;15.498;2022-08-19T09:06:52;96737.50;;;20.02;94.45
57442;BME280;43284;47.042;15.498;2022-08-19T09:09:32;96747.69;;;20.07;94.21
57442;BME280;43284;47.042;15.498;2022-08-19T09:12:04;96751.88;;;20.09;94.35
57442;BME280;43284;47.042;15.498;2022-08-19T09:14:47;96758.56;;;20.13;95.02
57442;BME280;43284;47.042;15.498;2022-08-19T09:17:16;96744.59;;;20.21;95.15
57442;BME280;43284;47.042;15.498;2022-08-19T09:19:53;96752.13;;;20.26;92.95
57442;BME280;43284;47.042;15.498;2022-08-19T09:22:21;96747.81;;;20.25;92.33
57442;BME280;43284;47.042;15.498;2022-08-19T09:24:52;96725.28;;;20.29;93.64
57442;BME280;43284;47.042;15.498;2022-08-19T09:27:21;96673.56;;;20.33;92.08
57442;BME280;43284;47.042;15.498;2022-08-19T09:29:52;96680.22;;;20.47;93.68
57442;BME280;43284;47.042;15.498;2022-08-19T09:32:21;96691.81;;;20.46;91.59
57442;BME280;43284;47.042;15.498;2022-08-19T09:34:48;96707.28;;;20.50;91.18
57442;BME280;43284;47.042;15.498;2022-08-19T09:37:15;96709.94;;;20.60;92.49
57442;BME280;43284;47.042;15.498;2022-08-19T09:39:42;96714.22;;;20.71;92.60
57442;BME280;43284;47.042;15.498;2022-08-19T09:42:11;96721.06;;;20.91;93.16
57442;BME280;43284;47.042;15.498;2022-08-19T09:44:41;96716.69;;;21.00;89.34
57442;BME280;43284;47.042;15.498;2022-08-19T09:47:12;96713.66;;;21.13;88.87
57442;BME280;43284;47.042;15.498;2022-08-19T09:49:40;96711.75;;;21.23;87.85
57442;BME280;43284;47.042;15.498;2022-08-19T09:52:11;96706.34;;;21.33;87.15
57442;BME280;43284;47.042;15.498;2022-08-19T09:54:39;96700.03;;;21.34;80.75
57442;BME280;43284;47.042;15.498;2022-08-19T09:57:06;96688.56;;;21.33;82.28
57442;BME280;43284;47.042;15.498;2022-08-19T09:59:34;96703.50;;;21.44;82.67
57442;BME280;43284;47.042;15.498;2022-08-19T10:02:02;96732.50;;;21.55;86.21
57442;BME280;43284;47.042;15.498;2022-08-19T10:04:29;96754.19;;;21.60;86.51
57442;BME280;43284;47.042;15.498;2022-08-19T10:07:16;96736.06;;;21.64;86.64
57442;BME280;43284;47.042;15.498;2022-08-19T10:09:43;96757.50;;;21.63;84.50
57442;BME280;43284;47.042;15.498;2022-08-19T10:12:10;96755.53;;;21.65;82.85
57442;BME280;43284;47.042;15.498;2022-08-19T10:14:38;96744.56;;;21.68;82.99
57442;BME280;43284;47.042;15.498;2022-08-19T10:17:05;96749.75;;;21.69;82.49
57442;BME280;43284;47.042;15.498;2022-08-19T10:19:32;96758.41;;;21.71;82.33
57442;BME280;43284;47.042;15.498;2022-08-19T10:22:06;96754.97;;;21.79;83.69
57442;BME280;43284;47.042;15.498;2022-08-19T10:24:34;96738.19;;;21.78;82.75
57442;BME280;43284;47.042;15.498;2022-08-19T10:27:01;96739.84;;;21.79;81.75
57442;BME280;43284;47.042;15.498;2022-08-19T10:29:31;96745.69;;;21.83;83.01
57442;BME280;43284;47.042;15.498;2022-08-19T10:32:01;96735.88;;;21.84;84.07
57442;BME280;43284;47.042;15.498;2022-08-19T10:34:30;96719.91;;;21.84;84.02
57442;BME280;43284;47.042;15.498;2022-08-19T10:36:58;96717.25;;;21.84;82.58
57442;BME280;43284;47.042;15.498;2022-08-19T10:39:28;96738.38;;;21.85;83.00
57442;BME280;43284;47.042;15.498;2022-08-19T10:41:56;96758.84;;;21.85;83.58
57442;BME280;43284;47.042;15.498;2022-08-19T10:44:24;96775.31;;;21.88;84.54
57442;BME280;43284;47.042;15.498;2022-08-19T10:46:52;96779.88;;;21.96;83.69
57442;BME280;43284;47.042;15.498;2022-08-19T10:49:21;96778.81;;;22.07;83.65
57442;BME280;43284;47.042;15.498;2022-08-19T10:51:50;96770.03;;;22.14;81.98
57442;BME280;43284;47.042;15.498;2022-08-19T10:54:36;96763.34;;;22.28;82.85
57442;BME280;43284;47.042;15.498;2022-08-19T10:57:21;96768.00;;;22.34;81.10
57442;BME280;43284;47.042;15.498;2022-08-19T10:59:50;96755.91;;;22.40;80.81
57442;BME280;43284;47.042;15.498;2022-08-19T11:02:17;96747.28;;;22.46;79.70
57442;BME280;43284;47.042;15.498;2022-08-19T11:07:11;96742.38;;;22.68;81.60
57442;BME280;43284;47.042;15.498;2022-08-19T11:09:41;96728.56;;;22.80;82.26
57442;BME280;43284;47.042;15.498;2022-08-19T11:12:09;96724.47;;;22.94;82.49
57442;BME280;43284;47.042;15.498;2022-08-19T11:14:36;96710.53;;;23.00;78.65
57442;BME280;43284;47.042;15.498;2022-08-19T11:17:05;96695.88;;;23.13;78.47
57442;BME280;43284;47.042;15.498;2022-08-19T11:19:33;96723.72;;;23.18;76.07
57442;BME280;43284;47.042;15.498;2022-08-19T11:22:01;96764.41;;;23.29;76.53
57442;BME280;43284;47.042;15.498;2022-08-19T11:24:29;96773.44;;;23.36;75.25
57442;BME280;43284;47.042;15.498;2022-08-19T11:27:03;96767.91;;;23.37;71.64
57442;BME280;43284;47.042;15.498;2022-08-19T11:29:32;96745.91;;;23.43;70.70
57442;BME280;43284;47.042;15.498;2022-08-19T11:32:08;96739.25;;;23.48;68.32
57442;BME280;43284;47.042;15.498;2022-08-19T11:34:36;96723.41;;;23.54;67.70
57442;BME280;43284;47.042;15.498;2022-08-19T11:37:05;96737.75;;;23.45;68.48
57442;BME280;43284;47.042;15.498;2022-08-19T11:39:33;96761.09;;;23.43;70.05
57442;BME280;43284;47.042;15.498;2022-08-19T11:42:02;96743.75;;;23.47;69.88
57442;BME280;43284;47.042;15.498;2022-08-19T11:44:50;96744.59;;;23.48;72.14
57442;BME280;43284;47.042;15.498;2022-08-19T11:47:18;96739.59;;;23.44;71.55
57442;BME280;43284;47.042;15.498;2022-08-19T11:49:46;96747.59;;;23.44;72.67
57442;BME280;43284;47.042;15.498;2022-08-19T11:52:13;96746.09;;;23.50;70.75
57442;BME280;43284;47.042;15.498;2022-08-19T11:54:40;96752.78;;;23.62;72.51
57442;BME280;43284;47.042;15.498;2022-08-19T11:57:08;96740.94;;;23.73;72.58
57442;BME280;43284;47.042;15.498;2022-08-19T11:59:35;96731.63;;;23.77;69.53
57442;BME280;43284;47.042;15.498;2022-08-19T12:02:03;96714.25;;;23.90;70.82
57442;BME280;43284;47.042;15.498;2022-08-19T12:04:30;96702.88;;;23.96;68.06
57442;BME280;43284;47.042;15.498;2022-08-19T12:06:58;96705.03;;;24.09;69.80
57442;BME280;43284;47.042;15.498;2022-08-19T12:09:25;96698.19;;;24.14;67.10
57442;BME280;43284;47.042;15.498;2022-08-19T12:11:53;96693.81;;;24.21;64.75
57442;BME280;43284;47.042;15.498;2022-08-19T12:14:20;96693.16;;;24.27;62.41
57442;BME280;43284;47.042;15.498;2022-08-19T12:16:47;96693.75;;;24.38;63.18
57442;BME280;43284;47.042;15.498;2022-08-19T12:19:14;96693.72;;;24.46;65.40
57442;BME280;43284;47.042;15.498;2022-08-19T12:21:41;96686.91;;;24.52;62.28
57442;BME280;43284;47.042;15.498;2022-08-19T12:24:09;96686.50;;;24.63;61.46
57442;BME280;43284;47.042;15.498;2022-08-19T12:26:36;96670.22;;;24.81;65.48
57442;BME280;43284;47.042;15.498;2022-08-19T12:29:03;96665.78;;;24.96;62.14
57442;BME280;43284;47.042;15.498;2022-08-19T12:31:30;96669.34;;;25.12;63.24
57442;BME280;43284;47.042;15.498;2022-08-19T12:33:58;96666.47;;;25.21;62.48
57442;BME280;43284;47.042;15.498;2022-08-19T12:36:26;96663.50;;;25.39;61.98
57442;BME280;43284;47.042;15.498;2022-08-19T12:38:53;96660.94;;;25.46;60.87
57442;BME280;43284;47.042;15.498;2022-08-19T12:41:21;96652.34;;;25.51;58.95
57442;BME280;43284;47.042;15.498;2022-08-19T12:43:48;96652.19;;;25.67;60.73
57442;BME280;43284;47.042;15.498;2022-08-19T12:46:16;96651.66;;;25.86;59.59
57442;BME280;43284;47.042;15.498;2022-08-19T12:48:43;96656.44;;;26.14;58.30
57442;BME280;43284;47.042;15.498;2022-08-19T12:51:15;96659.38;;;26.34;57.84
57442;BME280;43284;47.042;15.498;2022-08-19T12:53:43;96656.50;;;26.50;57.05
57442;BME280;43284;47.042;15.498;2022-08-19T12:56:11;96664.16;;;26.68;56.70
57442;BME280;43284;47.042;15.498;2022-08-19T12:58:41;96675.06;;;26.82;52.15
57442;BME280;43284;47.042;15.498;2022-08-19T13:01:14;96680.59;;;26.80;52.95
57442;BME280;43284;47.042;15.498;2022-08-19T13:03:50;96673.84;;;26.84;53.85
57442;BME280;43284;47.042;15.498;2022-08-19T13:06:22;96672.69;;;26.93;53.55
57442;BME280;43284;47.042;15.498;2022-08-19T13:08:50;96676.47;;;26.99;52.98
57442;BME280;43284;47.042;15.498;2022-08-19T13:11:20;96673.09;;;26.90;54.87
57442;BME280;43284;47.042;15.498;2022-08-19T13:13:52;96668.88;;;26.81;52.05